Andrews, TX

8:40 PM CST on December 14, 2019 (GMT -0600)
Andrews

Weather History for KE11 - October, 2019

Change the Weather History Date:

Thursday, October 3, 2019

  Actual Average (KMAF) Record (KMAF)
Temperature  
Mean Temperature 73 °F -  
Max Temperature 85 °F 80 °F 99 °F (2000)
Min Temperature 61 °F 56 °F 39 °F (1987)
Cooling Degree Days 8    
Growing Degree Days 23 (Base 50)    
Moisture  
Dew Point 63 °F    
Average Humidity 72    
Maximum Humidity 100    
Minimum Humidity 38    
Precipitation  
Precipitation 0.00 in - - ()
Sea Level Pressure  
Sea Level Pressure 30.11 in    
Wind  
Wind Speed 6 mph ()    
Max Wind Speed 20 mph    
Max Gust Speed 25 mph    
Visibility 10.0 miles    
Events Thunderstorm    
Averages and records for this station are not official NWS values.
T = Trace of Precipitation, MM = Missing Value Source: Averaged Metar Reports

Daily Weather History Graph

Daily Weather History Graph

Search for Another Location

Airport or City:

Astronomy

Oct. 03, 2019 Rise Set
Actual Time 7:45 AM CDT 7:32 PM CDT
Civil Twilight 7:20 AM CDT 7:56 PM CDT
Nautical Twilight 6:52 AM CDT 8:25 PM CDT
Astronomical Twilight 6:23 AM CDT 8:53 PM CDT
Moon 1:02 PM CDT (10/3) 11:30 PM CDT (10/3)
Length of Visible Light 12h 36m
Length of Day
11h 47m
Waxing Crescent, 30% of the Moon is Illuminated
Oct 3
Waxing Crescent
Oct 5
First Quarter
Oct 13
Full
Oct 21
Last Quarter
Oct 27
New

Hourly Weather History & Observations

Time (CDT) Temp. Heat Index Dew Point Humidity Pressure Visibility Wind Dir Wind Speed Gust Speed Precip Events Conditions
12:15 AM 71.6 °F - 71.6 °F 100% 30.05 in 10.0 mi Calm Calm - N/A   Mostly Cloudy
12:35 AM 71.2 °F - 71.2 °F 100% 30.05 in 10.0 mi Calm Calm - N/A   Clear
12:55 AM 70.7 °F - 70.7 °F 100% 30.06 in 10.0 mi Calm Calm - N/A Thunderstorm Clear
1:15 AM 70.7 °F - 70.7 °F 100% 30.07 in 10.0 mi WSW 3.5 mph - N/A   Scattered Clouds
1:35 AM 72.0 °F - 71.2 °F 98% 30.07 in 10.0 mi WSW 3.5 mph - N/A   Overcast
1:55 AM 72.7 °F - 68.2 °F 86% 30.07 in 10.0 mi SW 3.5 mph - N/A   Overcast
2:15 AM 72.7 °F - 66.0 °F 80% 30.07 in 10.0 mi SW 4.6 mph - N/A   Overcast
2:35 AM 72.1 °F - 64.4 °F 77% 30.07 in 10.0 mi SW 5.8 mph - N/A   Mostly Cloudy
2:55 AM 71.2 °F - 64.4 °F 79% 30.06 in 10.0 mi SW 4.6 mph - N/A   Clear
3:15 AM 70.7 °F - 64.4 °F 80% 30.06 in 10.0 mi WSW 3.5 mph - N/A   Clear
3:35 AM 70.5 °F - 64.0 °F 80% 30.06 in 10.0 mi SW 5.8 mph - N/A   Clear
3:55 AM 69.6 °F - 63.9 °F 82% 30.05 in 10.0 mi SSW 4.6 mph - N/A   Clear
4:15 AM 70.2 °F - 63.0 °F 78% 30.05 in 10.0 mi SSW 5.8 mph - N/A   Clear
4:55 AM 69.1 °F - 62.6 °F 80% 30.05 in 10.0 mi South 4.6 mph - N/A   Clear
5:15 AM 68.0 °F - 62.6 °F 83% 30.07 in 10.0 mi South 5.8 mph - N/A   Clear
5:35 AM 66.6 °F - 63.5 °F 90% 30.07 in 10.0 mi South 5.8 mph - N/A   Clear
5:55 AM 66.9 °F - 61.9 °F 84% 30.08 in 10.0 mi South 5.8 mph - N/A   Clear
6:15 AM 66.6 °F - 61.7 °F 84% 30.08 in 10.0 mi SSE 4.6 mph - N/A   Clear
6:35 AM 65.7 °F - 61.9 °F 88% 30.09 in 10.0 mi SSE 5.8 mph - N/A   Clear
6:55 AM 66.2 °F - 61.0 °F 83% 30.10 in 10.0 mi SSE 3.5 mph - N/A   Clear
7:10 AM 65.8 °F - 61.0 °F 84% 30.10 in 10.0 mi SSE 6.9 mph - N/A   Clear
7:35 AM 64.8 °F - 61.7 °F 90% 30.10 in 10.0 mi SE 4.6 mph - N/A   Clear
7:55 AM 64.6 °F - 61.5 °F 90% 30.11 in 10.0 mi SSE 5.8 mph - N/A   Clear
8:15 AM 65.5 °F - 61.0 °F 85% 30.11 in 10.0 mi SE 6.9 mph - N/A   Clear
8:35 AM 67.1 °F - 61.2 °F 81% 30.12 in 10.0 mi SSE 6.9 mph - N/A   Clear
8:55 AM 68.5 °F - 62.1 °F 80% 30.13 in 10.0 mi SSE 6.9 mph - N/A   Clear
9:15 AM 70.2 °F - 63.0 °F 78% 30.13 in 10.0 mi SSE 10.4 mph - N/A   Clear
9:35 AM 71.6 °F - 64.4 °F 78% 30.14 in 10.0 mi South 8.1 mph - N/A   Clear
9:55 AM 73.0 °F - 64.9 °F 76% 30.14 in 10.0 mi South 10.4 mph - N/A   Clear
10:15 AM 75.0 °F - 65.3 °F 72% 30.14 in 10.0 mi South 9.2 mph - N/A   Clear
10:35 AM 76.8 °F - 65.5 °F 68% 30.15 in 10.0 mi South 9.2 mph - N/A   Clear
10:55 AM 78.1 °F - 64.8 °F 63% 30.15 in 10.0 mi South 10.4 mph - N/A   Clear
11:15 AM 78.8 °F - 64.8 °F 62% 30.15 in 10.0 mi South 11.5 mph 18.4 mph N/A   Clear
11:35 AM 79.9 °F - 64.2 °F 59% 30.15 in 10.0 mi SSE 11.5 mph 17.3 mph N/A   Clear
11:55 AM 80.1 °F 81.7 °F 63.9 °F 58% 30.15 in 10.0 mi South 11.5 mph 16.1 mph N/A   Mostly Cloudy
12:15 PM 80.8 °F 82.2 °F 63.5 °F 56% 30.15 in 10.0 mi South 12.7 mph - N/A   Mostly Cloudy
12:35 PM 80.2 °F 81.3 °F 61.9 °F 53% 30.15 in 10.0 mi SSE 8.1 mph - N/A   Mostly Cloudy
12:55 PM 81.7 °F 81.8 °F 58.5 °F 45% 30.14 in 10.0 mi SE 11.5 mph 17.3 mph N/A   Scattered Clouds
1:15 PM 82.6 °F 82.8 °F 60.1 °F 46% 30.13 in 10.0 mi SE 11.5 mph 17.3 mph N/A   Scattered Clouds
1:35 PM 84.2 °F 84.0 °F 59.5 °F 43% 30.13 in 10.0 mi SE 12.7 mph - N/A   Mostly Cloudy
1:55 PM 83.5 °F 83.1 °F 58.3 °F 42% 30.12 in 10.0 mi SSE 11.5 mph 19.6 mph N/A   Scattered Clouds
2:15 PM 83.7 °F 83.3 °F 58.6 °F 42% 30.12 in 10.0 mi SE 11.5 mph 20.7 mph N/A   Mostly Cloudy
2:35 PM 82.8 °F 82.8 °F 59.4 °F 45% 30.10 in 10.0 mi SE 9.2 mph - N/A   Mostly Cloudy
2:55 PM 83.1 °F 83.0 °F 59.4 °F 44% 30.09 in 10.0 mi SSE 11.5 mph 19.6 mph N/A   Mostly Cloudy
3:15 PM 83.1 °F 83.0 °F 59.0 °F 44% 30.09 in 10.0 mi SSE 13.8 mph 17.3 mph N/A   Scattered Clouds
3:35 PM 85.5 °F 84.8 °F 58.6 °F 40% 30.08 in 10.0 mi SSE 11.5 mph 16.1 mph N/A   Mostly Cloudy
3:55 PM 82.4 °F 82.2 °F 58.1 °F 43% 30.08 in 10.0 mi SSE 10.4 mph - N/A   Scattered Clouds
4:15 PM 84.9 °F 84.2 °F 58.1 °F 40% 30.08 in 10.0 mi SSE 12.7 mph 18.4 mph N/A   Clear
4:35 PM 84.7 °F 84.2 °F 58.6 °F 41% 30.07 in 10.0 mi South 12.7 mph 18.4 mph N/A   Clear
4:55 PM 85.8 °F 84.8 °F 57.6 °F 38% 30.08 in 10.0 mi SSE 11.5 mph 18.4 mph N/A   Scattered Clouds
5:15 PM 82.8 °F 82.4 °F 57.6 °F 42% 30.08 in 10.0 mi South 6.9 mph - N/A   Mostly Cloudy
5:35 PM 82.8 °F 82.5 °F 57.9 °F 43% 30.08 in 10.0 mi SE 6.9 mph - N/A   Mostly Cloudy
5:55 PM 82.8 °F 82.7 °F 59.0 °F 44% 30.08 in 10.0 mi ESE 5.8 mph - N/A   Mostly Cloudy
6:15 PM 83.5 °F 82.9 °F 57.7 °F 41% 30.09 in 10.0 mi SSE 10.4 mph - N/A   Overcast
6:35 PM 81.9 °F 81.9 °F 58.3 °F 45% 30.09 in 10.0 mi SE 6.9 mph - N/A   Scattered Clouds
6:55 PM 82.4 °F 82.3 °F 58.5 °F 44% 30.09 in 10.0 mi SSE 6.9 mph - N/A   Mostly Cloudy
7:15 PM 80.2 °F 80.7 °F 58.3 °F 47% 30.10 in 10.0 mi SE 5.8 mph - N/A   Mostly Cloudy
7:35 PM 75.7 °F - 64.0 °F 67% 30.10 in 10.0 mi North 19.6 mph 24.2 mph N/A   Mostly Cloudy
7:55 PM 73.6 °F - 63.3 °F 70% 30.12 in 10.0 mi NNE 19.6 mph 25.3 mph N/A   Overcast
8:15 PM 72.0 °F - 63.3 °F 74% 30.14 in 10.0 mi NNE 19.6 mph 23.0 mph N/A   Mostly Cloudy
8:35 PM 70.2 °F - 63.5 °F 79% 30.15 in 10.0 mi NNE 17.3 mph 23.0 mph N/A   Mostly Cloudy
8:55 PM 68.9 °F - 63.7 °F 83% 30.17 in 10.0 mi North 10.4 mph 18.4 mph N/A   Mostly Cloudy
9:15 PM 66.0 °F - 62.6 °F 89% 30.18 in 10.0 mi NNE 15.0 mph 21.9 mph N/A   Scattered Clouds
9:35 PM 64.9 °F - 64.9 °F 100% 30.18 in 10.0 mi NNE 11.5 mph - N/A   Light Drizzle
9:55 PM 64.8 °F - 64.8 °F 100% 30.18 in 10.0 mi NNE 12.7 mph 18.4 mph N/A   Scattered Clouds
10:15 PM 64.6 °F - 64.6 °F 100% 30.20 in 10.0 mi NNE 10.4 mph - N/A   Mostly Cloudy
10:35 PM 63.9 °F - 63.9 °F 100% 30.20 in 10.0 mi NNE 10.4 mph - N/A   Scattered Clouds
10:55 PM 63.3 °F - 63.3 °F 100% 30.20 in 10.0 mi NNE 9.2 mph - N/A   Clear
11:15 PM 62.6 °F - 62.6 °F 100% 30.20 in 10.0 mi NNE 8.1 mph - N/A   Clear
11:35 PM 61.9 °F - 61.9 °F 100% 30.20 in 10.0 mi NE 10.4 mph - N/A   Clear
11:55 PM 61.7 °F - 61.7 °F 100% 30.21 in 10.0 mi NNE 8.1 mph - N/A   Clear